Kezdőlap
METAR-TAF:

METAR-TAF

Repülőterek :

Montevideo-Chippewa County Airport

Montevideo, Minnesota, Amerikai Egyesült Államok

földrajzi szélesség: 44-58N, földrajzi hosszúság: 095-43W, magasság: 315 m

Jelenlegi meteorológiai megfigyelések

A jelentés 19 perccel ezelõtt készült, 14:55 UTC
Nyugat-északnyugati szél 3 kt
Hőmérséklet -9°C
Páratartalom 79%
Légköri nyomás 1029 hPa
Látótávolság: 16.1 km
Derült ég

METAR: KMVE 061455Z AUTO 29003KT 10SM CLR M09/M12 A3039 RMK AO2

Idő: 09:14 (15:14 UTC)


TAF: hiányzik

Meteorológiai megfigyelések és előrejelzések több, mint 4000 repülőtéren (METAR és TAF jelentéseket).

A térképen piros és sárga pontok jelzik az elérhető meteorológiai állomásokat.

Mozgassa az egeret a pont fölött, hogy megjelenjen az állomás neve.

Azután kattintson az időjárási megfigyelések és előrejelzések megtekintéséhez.

A térkép megváltoztatása: kattintson a fekete keresztel jelölt zöld gombra ráközelítéshez, a vonallal jelölt zöld gombra távolításhoz, vagy a zöld nyilakra a szomszédos térképek eléréséhez.


METAR-TAF: